sensor_id;sensor_type;location;lat;lon;timestamp;temperature;humidity
935;DHT22;454;53.254;10.400;2023-04-29T00:00:47;9.40;99.90
935;DHT22;454;53.254;10.400;2023-04-29T00:03:15;9.40;99.90
935;DHT22;454;53.254;10.400;2023-04-29T00:05:43;9.40;99.90
935;DHT22;454;53.254;10.400;2023-04-29T00:08:10;9.40;99.90
935;DHT22;454;53.254;10.400;2023-04-29T00:10:37;9.30;99.90
935;DHT22;454;53.254;10.400;2023-04-29T00:13:04;9.30;99.90
935;DHT22;454;53.254;10.400;2023-04-29T00:15:30;9.20;99.90
935;DHT22;454;53.254;10.400;2023-04-29T00:17:57;9.30;99.90
935;DHT22;454;53.254;10.400;2023-04-29T00:20:25;9.20;99.90
935;DHT22;454;53.254;10.400;2023-04-29T00:22:52;9.20;99.90
935;DHT22;454;53.254;10.400;2023-04-29T00:25:19;9.20;99.90
935;DHT22;454;53.254;10.400;2023-04-29T00:27:46;9.20;99.90
935;DHT22;454;53.254;10.400;2023-04-29T00:30:12;9.20;99.90
935;DHT22;454;53.254;10.400;2023-04-29T00:32:39;9.20;99.90
935;DHT22;454;53.254;10.400;2023-04-29T00:35:06;9.20;99.90
935;DHT22;454;53.254;10.400;2023-04-29T00:37:34;9.20;99.90
935;DHT22;454;53.254;10.400;2023-04-29T00:40:02;9.20;99.90
935;DHT22;454;53.254;10.400;2023-04-29T00:42:31;9.20;99.90
935;DHT22;454;53.254;10.400;2023-04-29T00:44:58;9.10;99.90
935;DHT22;454;53.254;10.400;2023-04-29T00:47:25;9.20;99.90
935;DHT22;454;53.254;10.400;2023-04-29T00:49:51;9.10;99.90
935;DHT22;454;53.254;10.400;2023-04-29T00:52:18;9.10;99.90
935;DHT22;454;53.254;10.400;2023-04-29T00:54:46;9.10;99.90
935;DHT22;454;53.254;10.400;2023-04-29T00:57:14;9.00;99.90
935;DHT22;454;53.254;10.400;2023-04-29T00:59:40;9.00;99.90
935;DHT22;454;53.254;10.400;2023-04-29T01:02:07;9.00;99.90
935;DHT22;454;53.254;10.400;2023-04-29T01:04:34;9.00;99.90
935;DHT22;454;53.254;10.400;2023-04-29T01:07:06;9.00;99.90
935;DHT22;454;53.254;10.400;2023-04-29T01:09:51;9.00;99.90
935;DHT22;454;53.254;10.400;2023-04-29T01:12:20;9.00;99.90
935;DHT22;454;53.254;10.400;2023-04-29T01:15:02;9.00;99.90
935;DHT22;454;53.254;10.400;2023-04-29T01:17:35;9.00;99.90
935;DHT22;454;53.254;10.400;2023-04-29T01:20:03;9.00;99.90
935;DHT22;454;53.254;10.400;2023-04-29T01:22:32;9.00;99.90
935;DHT22;454;53.254;10.400;2023-04-29T01:25:00;9.10;99.90
935;DHT22;454;53.254;10.400;2023-04-29T01:27:30;9.00;99.90
935;DHT22;454;53.254;10.400;2023-04-29T01:30:01;9.00;99.90
935;DHT22;454;53.254;10.400;2023-04-29T01:32:40;9.00;99.90
935;DHT22;454;53.254;10.400;2023-04-29T01:35:14;8.90;99.90
935;DHT22;454;53.254;10.400;2023-04-29T01:37:48;8.90;99.90
935;DHT22;454;53.254;10.400;2023-04-29T01:40:24;8.90;99.90
935;DHT22;454;53.254;10.400;2023-04-29T01:43:00;8.90;99.90
935;DHT22;454;53.254;10.400;2023-04-29T01:45:29;8.90;99.90
935;DHT22;454;53.254;10.400;2023-04-29T01:47:56;8.90;99.90
935;DHT22;454;53.254;10.400;2023-04-29T01:50:24;8.90;99.90
935;DHT22;454;53.254;10.400;2023-04-29T01:52:51;8.90;99.90
935;DHT22;454;53.254;10.400;2023-04-29T01:55:19;8.90;99.90
935;DHT22;454;53.254;10.400;2023-04-29T01:57:46;9.00;99.90
935;DHT22;454;53.254;10.400;2023-04-29T02:00:13;9.00;99.90
935;DHT22;454;53.254;10.400;2023-04-29T02:02:39;9.00;99.90
935;DHT22;454;53.254;10.400;2023-04-29T02:05:06;9.00;99.90
935;DHT22;454;53.254;10.400;2023-04-29T02:07:34;9.00;99.90
935;DHT22;454;53.254;10.400;2023-04-29T02:10:01;9.10;99.90
935;DHT22;454;53.254;10.400;2023-04-29T02:12:29;9.10;99.90
935;DHT22;454;53.254;10.400;2023-04-29T02:14:56;9.10;99.90
935;DHT22;454;53.254;10.400;2023-04-29T02:17:23;9.10;99.90
935;DHT22;454;53.254;10.400;2023-04-29T02:19:50;9.10;99.90
935;DHT22;454;53.254;10.400;2023-04-29T02:22:19;9.10;99.90
935;DHT22;454;53.254;10.400;2023-04-29T02:24:46;9.20;99.90
935;DHT22;454;53.254;10.400;2023-04-29T02:27:13;9.20;99.90
935;DHT22;454;53.254;10.400;2023-04-29T02:29:41;9.10;99.90
935;DHT22;454;53.254;10.400;2023-04-29T02:32:08;9.10;99.90
935;DHT22;454;53.254;10.400;2023-04-29T02:34:35;9.10;99.90
935;DHT22;454;53.254;10.400;2023-04-29T02:37:01;9.10;99.90
935;DHT22;454;53.254;10.400;2023-04-29T02:39:29;9.10;99.90
935;DHT22;454;53.254;10.400;2023-04-29T02:41:56;9.10;99.90
935;DHT22;454;53.254;10.400;2023-04-29T02:44:22;9.10;99.90
935;DHT22;454;53.254;10.400;2023-04-29T02:46:51;9.10;99.90
935;DHT22;454;53.254;10.400;2023-04-29T02:49:17;9.20;99.90
935;DHT22;454;53.254;10.400;2023-04-29T02:51:44;9.20;99.90
935;DHT22;454;53.254;10.400;2023-04-29T02:54:11;9.20;99.90
935;DHT22;454;53.254;10.400;2023-04-29T02:56:37;9.20;99.90
935;DHT22;454;53.254;10.400;2023-04-29T02:59:04;9.20;99.90
935;DHT22;454;53.254;10.400;2023-04-29T03:01:31;9.20;99.90
935;DHT22;454;53.254;10.400;2023-04-29T03:03:59;9.20;99.90
935;DHT22;454;53.254;10.400;2023-04-29T03:06:26;9.30;99.90
935;DHT22;454;53.254;10.400;2023-04-29T03:08:53;9.30;99.90
935;DHT22;454;53.254;10.400;2023-04-29T03:11:20;9.30;99.90
935;DHT22;454;53.254;10.400;2023-04-29T03:13:49;9.30;99.90
935;DHT22;454;53.254;10.400;2023-04-29T03:16:15;9.30;99.90
935;DHT22;454;53.254;10.400;2023-04-29T03:18:42;9.30;99.90
935;DHT22;454;53.254;10.400;2023-04-29T03:21:10;9.30;99.90
935;DHT22;454;53.254;10.400;2023-04-29T03:23:37;9.30;99.90
935;DHT22;454;53.254;10.400;2023-04-29T03:26:05;9.20;99.90
935;DHT22;454;53.254;10.400;2023-04-29T03:28:32;9.20;99.90
935;DHT22;454;53.254;10.400;2023-04-29T03:30:58;9.20;99.90
935;DHT22;454;53.254;10.400;2023-04-29T03:33:26;9.20;99.90
935;DHT22;454;53.254;10.400;2023-04-29T03:35:53;9.20;99.90
935;DHT22;454;53.254;10.400;2023-04-29T03:38:21;9.20;99.90
935;DHT22;454;53.254;10.400;2023-04-29T03:40:49;9.20;99.90
935;DHT22;454;53.254;10.400;2023-04-29T03:43:15;9.20;99.90
935;DHT22;454;53.254;10.400;2023-04-29T03:45:42;9.20;99.90
935;DHT22;454;53.254;10.400;2023-04-29T03:48:09;9.20;99.90
935;DHT22;454;53.254;10.400;2023-04-29T03:50:37;9.20;99.90
935;DHT22;454;53.254;10.400;2023-04-29T03:53:03;9.20;99.90
935;DHT22;454;53.254;10.400;2023-04-29T03:55:32;9.20;99.90
935;DHT22;454;53.254;10.400;2023-04-29T03:57:58;9.10;99.90
935;DHT22;454;53.254;10.400;2023-04-29T04:00:25;9.10;99.90
935;DHT22;454;53.254;10.400;2023-04-29T04:02:55;9.10;99.90
935;DHT22;454;53.254;10.400;2023-04-29T04:05:22;9.10;99.90
935;DHT22;454;53.254;10.400;2023-04-29T04:07:49;9.10;99.90
935;DHT22;454;53.254;10.400;2023-04-29T04:10:16;9.10;99.90
935;DHT22;454;53.254;10.400;2023-04-29T04:12:44;9.10;99.90
935;DHT22;454;53.254;10.400;2023-04-29T04:15:11;9.10;99.90
935;DHT22;454;53.254;10.400;2023-04-29T04:17:38;9.10;99.90
935;DHT22;454;53.254;10.400;2023-04-29T04:20:06;9.10;99.90
935;DHT22;454;53.254;10.400;2023-04-29T04:22:33;9.10;99.90
935;DHT22;454;53.254;10.400;2023-04-29T04:25:00;9.10;99.90
935;DHT22;454;53.254;10.400;2023-04-29T04:27:26;9.10;99.90
935;DHT22;454;53.254;10.400;2023-04-29T04:29:55;9.10;99.90
935;DHT22;454;53.254;10.400;2023-04-29T04:32:22;9.10;99.90
935;DHT22;454;53.254;10.400;2023-04-29T04:34:49;9.10;99.90
935;DHT22;454;53.254;10.400;2023-04-29T04:37:15;9.10;99.90
935;DHT22;454;53.254;10.400;2023-04-29T04:39:43;9.10;99.90
935;DHT22;454;53.254;10.400;2023-04-29T04:42:09;9.00;99.90
935;DHT22;454;53.254;10.400;2023-04-29T04:44:36;9.10;99.90
935;DHT22;454;53.254;10.400;2023-04-29T04:47:04;9.10;99.90
935;DHT22;454;53.254;10.400;2023-04-29T04:49:31;9.10;99.90
935;DHT22;454;53.254;10.400;2023-04-29T04:51:58;9.00;99.90
935;DHT22;454;53.254;10.400;2023-04-29T04:54:25;9.10;99.90
935;DHT22;454;53.254;10.400;2023-04-29T04:56:52;9.10;99.90
935;DHT22;454;53.254;10.400;2023-04-29T04:59:18;9.10;99.90
935;DHT22;454;53.254;10.400;2023-04-29T05:01:45;9.10;99.90
935;DHT22;454;53.254;10.400;2023-04-29T05:04:13;9.10;99.90
935;DHT22;454;53.254;10.400;2023-04-29T05:06:40;9.10;99.90
935;DHT22;454;53.254;10.400;2023-04-29T05:09:07;9.10;99.90
935;DHT22;454;53.254;10.400;2023-04-29T05:11:34;9.10;99.90
935;DHT22;454;53.254;10.400;2023-04-29T05:14:01;9.10;99.90
935;DHT22;454;53.254;10.400;2023-04-29T05:16:27;9.10;99.90
935;DHT22;454;53.254;10.400;2023-04-29T05:18:54;9.20;99.90
935;DHT22;454;53.254;10.400;2023-04-29T05:21:22;9.20;99.90
935;DHT22;454;53.254;10.400;2023-04-29T05:23:49;9.30;99.90
935;DHT22;454;53.254;10.400;2023-04-29T05:26:16;9.30;99.90
935;DHT22;454;53.254;10.400;2023-04-29T05:28:42;9.40;99.90
935;DHT22;454;53.254;10.400;2023-04-29T05:31:09;9.40;99.90
935;DHT22;454;53.254;10.400;2023-04-29T05:33:36;9.40;99.90
935;DHT22;454;53.254;10.400;2023-04-29T05:36:03;9.40;99.90
935;DHT22;454;53.254;10.400;2023-04-29T05:38:32;9.30;99.90
935;DHT22;454;53.254;10.400;2023-04-29T05:40:59;9.40;99.90
935;DHT22;454;53.254;10.400;2023-04-29T05:43:26;9.40;99.90
935;DHT22;454;53.254;10.400;2023-04-29T05:45:52;9.50;99.90
935;DHT22;454;53.254;10.400;2023-04-29T05:48:20;9.50;99.90
935;DHT22;454;53.254;10.400;2023-04-29T05:50:47;9.50;99.90
935;DHT22;454;53.254;10.400;2023-04-29T05:53:13;9.50;99.90
935;DHT22;454;53.254;10.400;2023-04-29T05:55:42;9.50;99.90
935;DHT22;454;53.254;10.400;2023-04-29T05:58:09;9.50;99.90
935;DHT22;454;53.254;10.400;2023-04-29T06:00:36;9.50;99.90
935;DHT22;454;53.254;10.400;2023-04-29T06:03:03;9.60;99.90
935;DHT22;454;53.254;10.400;2023-04-29T06:05:29;9.60;99.90
935;DHT22;454;53.254;10.400;2023-04-29T06:07:57;9.70;99.90
935;DHT22;454;53.254;10.400;2023-04-29T06:10:23;9.70;99.90
935;DHT22;454;53.254;10.400;2023-04-29T06:12:51;9.70;99.90
935;DHT22;454;53.254;10.400;2023-04-29T06:15:18;9.70;99.90
935;DHT22;454;53.254;10.400;2023-04-29T06:17:45;9.70;99.90
935;DHT22;454;53.254;10.400;2023-04-29T06:20:13;9.80;99.90
935;DHT22;454;53.254;10.400;2023-04-29T06:22:40;9.80;99.90
935;DHT22;454;53.254;10.400;2023-04-29T06:25:07;9.70;99.90
935;DHT22;454;53.254;10.400;2023-04-29T06:27:34;9.70;99.90
935;DHT22;454;53.254;10.400;2023-04-29T06:30:02;9.70;99.90
935;DHT22;454;53.254;10.400;2023-04-29T06:32:29;9.80;99.90
935;DHT22;454;53.254;10.400;2023-04-29T06:34:55;10.00;99.90
935;DHT22;454;53.254;10.400;2023-04-29T06:37:22;10.00;99.90
935;DHT22;454;53.254;10.400;2023-04-29T06:39:49;10.10;99.90
935;DHT22;454;53.254;10.400;2023-04-29T06:42:16;10.20;99.90
935;DHT22;454;53.254;10.400;2023-04-29T06:44:42;10.50;99.90
935;DHT22;454;53.254;10.400;2023-04-29T06:47:11;10.80;99.90
935;DHT22;454;53.254;10.400;2023-04-29T06:49:37;11.30;99.90
935;DHT22;454;53.254;10.400;2023-04-29T06:52:04;11.80;99.90
935;DHT22;454;53.254;10.400;2023-04-29T06:54:31;12.30;99.90
935;DHT22;454;53.254;10.400;2023-04-29T06:56:58;12.70;99.90
935;DHT22;454;53.254;10.400;2023-04-29T06:59:24;12.90;99.90
935;DHT22;454;53.254;10.400;2023-04-29T07:01:51;13.30;99.90
935;DHT22;454;53.254;10.400;2023-04-29T07:04:19;14.00;99.90
935;DHT22;454;53.254;10.400;2023-04-29T07:06:47;14.30;99.90
935;DHT22;454;53.254;10.400;2023-04-29T07:09:14;14.70;99.90
935;DHT22;454;53.254;10.400;2023-04-29T07:11:40;15.40;99.90
935;DHT22;454;53.254;10.400;2023-04-29T07:16:34;15.70;99.90
935;DHT22;454;53.254;10.400;2023-04-29T07:19:01;15.50;99.90
935;DHT22;454;53.254;10.400;2023-04-29T07:21:29;15.50;99.90
935;DHT22;454;53.254;10.400;2023-04-29T07:23:56;15.70;99.90
935;DHT22;454;53.254;10.400;2023-04-29T07:26:25;16.10;99.90
935;DHT22;454;53.254;10.400;2023-04-29T07:28:52;16.10;99.90
935;DHT22;454;53.254;10.400;2023-04-29T07:31:19;16.00;99.90
935;DHT22;454;53.254;10.400;2023-04-29T07:33:47;15.60;99.90
935;DHT22;454;53.254;10.400;2023-04-29T07:36:13;15.40;99.90
935;DHT22;454;53.254;10.400;2023-04-29T07:38:41;14.90;99.90
935;DHT22;454;53.254;10.400;2023-04-29T07:41:08;14.60;99.90
935;DHT22;454;53.254;10.400;2023-04-29T07:43:35;14.60;99.90
935;DHT22;454;53.254;10.400;2023-04-29T07:46:02;14.30;99.90
935;DHT22;454;53.254;10.400;2023-04-29T07:48:28;14.30;99.90
935;DHT22;454;53.254;10.400;2023-04-29T07:50:55;14.00;99.90
935;DHT22;454;53.254;10.400;2023-04-29T07:53:22;13.90;99.90
935;DHT22;454;53.254;10.400;2023-04-29T07:55:50;13.70;99.90
935;DHT22;454;53.254;10.400;2023-04-29T07:58:16;13.70;99.90
935;DHT22;454;53.254;10.400;2023-04-29T08:00:43;13.60;99.90
935;DHT22;454;53.254;10.400;2023-04-29T08:03:11;13.50;99.90
935;DHT22;454;53.254;10.400;2023-04-29T08:05:38;13.50;99.90
935;DHT22;454;53.254;10.400;2023-04-29T08:08:05;13.40;99.90
935;DHT22;454;53.254;10.400;2023-04-29T08:10:32;13.40;99.90
935;DHT22;454;53.254;10.400;2023-04-29T08:13:00;13.40;99.90
935;DHT22;454;53.254;10.400;2023-04-29T08:15:26;13.40;99.90
935;DHT22;454;53.254;10.400;2023-04-29T08:17:53;13.30;99.90
935;DHT22;454;53.254;10.400;2023-04-29T08:20:20;13.30;99.90
935;DHT22;454;53.254;10.400;2023-04-29T08:22:47;13.20;99.90
935;DHT22;454;53.254;10.400;2023-04-29T08:25:14;13.20;99.90
935;DHT22;454;53.254;10.400;2023-04-29T08:27:41;13.20;99.90
935;DHT22;454;53.254;10.400;2023-04-29T08:30:12;13.20;99.90
935;DHT22;454;53.254;10.400;2023-04-29T08:32:38;13.20;99.90
935;DHT22;454;53.254;10.400;2023-04-29T08:35:06;13.40;99.90
935;DHT22;454;53.254;10.400;2023-04-29T08:37:33;13.40;99.90
935;DHT22;454;53.254;10.400;2023-04-29T08:40:00;13.30;99.90
935;DHT22;454;53.254;10.400;2023-04-29T08:42:32;13.30;99.90
935;DHT22;454;53.254;10.400;2023-04-29T08:45:01;13.30;99.90
935;DHT22;454;53.254;10.400;2023-04-29T08:47:30;13.20;99.90
935;DHT22;454;53.254;10.400;2023-04-29T08:50:01;13.30;99.90
935;DHT22;454;53.254;10.400;2023-04-29T08:52:28;13.20;99.90
935;DHT22;454;53.254;10.400;2023-04-29T08:54:56;13.20;99.90
935;DHT22;454;53.254;10.400;2023-04-29T08:57:24;13.30;99.90
935;DHT22;454;53.254;10.400;2023-04-29T08:59:51;13.30;99.90
935;DHT22;454;53.254;10.400;2023-04-29T09:02:19;13.30;99.90
935;DHT22;454;53.254;10.400;2023-04-29T09:04:54;13.40;99.90
935;DHT22;454;53.254;10.400;2023-04-29T09:07:23;13.40;99.90
935;DHT22;454;53.254;10.400;2023-04-29T09:09:50;13.40;99.90
935;DHT22;454;53.254;10.400;2023-04-29T09:12:18;13.40;99.90
935;DHT22;454;53.254;10.400;2023-04-29T09:14:44;13.40;99.90
935;DHT22;454;53.254;10.400;2023-04-29T09:17:11;13.50;99.90
935;DHT22;454;53.254;10.400;2023-04-29T09:19:40;13.50;99.90
935;DHT22;454;53.254;10.400;2023-04-29T09:22:09;13.50;99.90
935;DHT22;454;53.254;10.400;2023-04-29T09:24:36;13.60;99.90
935;DHT22;454;53.254;10.400;2023-04-29T09:27:04;13.70;99.90
935;DHT22;454;53.254;10.400;2023-04-29T09:29:31;13.60;99.90
935;DHT22;454;53.254;10.400;2023-04-29T09:31:59;13.70;99.90
935;DHT22;454;53.254;10.400;2023-04-29T09:34:30;13.70;99.90
935;DHT22;454;53.254;10.400;2023-04-29T09:36:57;13.80;99.90
935;DHT22;454;53.254;10.400;2023-04-29T09:39:25;13.90;99.90
935;DHT22;454;53.254;10.400;2023-04-29T09:41:59;13.80;99.90
935;DHT22;454;53.254;10.400;2023-04-29T09:44:28;13.90;99.90
935;DHT22;454;53.254;10.400;2023-04-29T09:46:56;13.90;99.90
935;DHT22;454;53.254;10.400;2023-04-29T09:49:25;13.90;99.90
935;DHT22;454;53.254;10.400;2023-04-29T09:51:53;13.90;99.90
935;DHT22;454;53.254;10.400;2023-04-29T09:54:21;14.00;99.90
935;DHT22;454;53.254;10.400;2023-04-29T09:56:50;14.10;99.90
935;DHT22;454;53.254;10.400;2023-04-29T09:59:17;14.10;99.90
935;DHT22;454;53.254;10.400;2023-04-29T10:01:47;14.00;99.90
935;DHT22;454;53.254;10.400;2023-04-29T10:04:15;14.00;99.90
935;DHT22;454;53.254;10.400;2023-04-29T10:06:43;14.10;99.90
935;DHT22;454;53.254;10.400;2023-04-29T10:09:12;14.10;99.90
935;DHT22;454;53.254;10.400;2023-04-29T10:11:43;14.10;99.90
935;DHT22;454;53.254;10.400;2023-04-29T10:14:14;14.10;99.90
935;DHT22;454;53.254;10.400;2023-04-29T10:16:45;14.30;99.90
935;DHT22;454;53.254;10.400;2023-04-29T10:19:14;14.30;99.90
935;DHT22;454;53.254;10.400;2023-04-29T10:21:44;14.30;99.90
935;DHT22;454;53.254;10.400;2023-04-29T10:24:14;14.30;99.90
935;DHT22;454;53.254;10.400;2023-04-29T10:26:43;14.40;99.90
935;DHT22;454;53.254;10.400;2023-04-29T10:29:12;14.40;99.90
935;DHT22;454;53.254;10.400;2023-04-29T10:31:40;14.40;99.90
935;DHT22;454;53.254;10.400;2023-04-29T10:34:08;14.50;99.90
935;DHT22;454;53.254;10.400;2023-04-29T10:36:36;14.60;99.90
935;DHT22;454;53.254;10.400;2023-04-29T10:39:04;14.60;99.90
935;DHT22;454;53.254;10.400;2023-04-29T10:41:36;14.60;99.90
935;DHT22;454;53.254;10.400;2023-04-29T10:44:03;14.60;99.90
935;DHT22;454;53.254;10.400;2023-04-29T10:46:31;14.60;99.90
935;DHT22;454;53.254;10.400;2023-04-29T10:49:00;14.60;99.90
935;DHT22;454;53.254;10.400;2023-04-29T10:51:29;14.60;99.90
935;DHT22;454;53.254;10.400;2023-04-29T10:54:00;14.60;99.90
935;DHT22;454;53.254;10.400;2023-04-29T10:56:38;14.60;99.90
935;DHT22;454;53.254;10.400;2023-04-29T10:59:08;14.70;99.90
935;DHT22;454;53.254;10.400;2023-04-29T11:01:44;14.70;99.90
935;DHT22;454;53.254;10.400;2023-04-29T11:04:11;14.70;99.90
935;DHT22;454;53.254;10.400;2023-04-29T11:06:40;14.80;99.90
935;DHT22;454;53.254;10.400;2023-04-29T11:09:10;14.90;99.90
935;DHT22;454;53.254;10.400;2023-04-29T11:11:58;15.00;99.90
935;DHT22;454;53.254;10.400;2023-04-29T11:14:29;15.00;99.90
935;DHT22;454;53.254;10.400;2023-04-29T11:16:58;14.90;99.90
935;DHT22;454;53.254;10.400;2023-04-29T11:19:30;14.80;99.90
935;DHT22;454;53.254;10.400;2023-04-29T11:22:08;14.90;99.90
935;DHT22;454;53.254;10.400;2023-04-29T11:24:36;15.00;99.90
935;DHT22;454;53.254;10.400;2023-04-29T11:27:14;15.10;99.90
935;DHT22;454;53.254;10.400;2023-04-29T11:29:41;15.10;99.90
935;DHT22;454;53.254;10.400;2023-04-29T11:32:09;15.30;99.90
935;DHT22;454;53.254;10.400;2023-04-29T11:34:36;15.40;99.90
935;DHT22;454;53.254;10.400;2023-04-29T11:37:04;15.50;99.90
935;DHT22;454;53.254;10.400;2023-04-29T11:39:32;15.60;99.90
935;DHT22;454;53.254;10.400;2023-04-29T11:42:03;15.80;99.90
935;DHT22;454;53.254;10.400;2023-04-29T11:44:32;15.90;99.90
935;DHT22;454;53.254;10.400;2023-04-29T11:47:02;16.10;99.90
935;DHT22;454;53.254;10.400;2023-04-29T11:49:31;16.20;99.90
935;DHT22;454;53.254;10.400;2023-04-29T11:51:58;16.30;99.90
935;DHT22;454;53.254;10.400;2023-04-29T11:54:25;16.20;99.90
935;DHT22;454;53.254;10.400;2023-04-29T11:56:52;16.10;99.90
935;DHT22;454;53.254;10.400;2023-04-29T11:59:20;15.90;99.90
935;DHT22;454;53.254;10.400;2023-04-29T12:01:48;15.80;99.90
935;DHT22;454;53.254;10.400;2023-04-29T12:04:14;15.80;99.90
935;DHT22;454;53.254;10.400;2023-04-29T12:06:43;16.10;99.90
935;DHT22;454;53.254;10.400;2023-04-29T12:09:09;16.10;99.90
935;DHT22;454;53.254;10.400;2023-04-29T12:11:36;16.00;99.90
935;DHT22;454;53.254;10.400;2023-04-29T12:14:03;16.10;99.90
935;DHT22;454;53.254;10.400;2023-04-29T12:16:31;16.10;99.90
935;DHT22;454;53.254;10.400;2023-04-29T12:18:59;16.10;99.90
935;DHT22;454;53.254;10.400;2023-04-29T12:21:25;16.20;99.90
935;DHT22;454;53.254;10.400;2023-04-29T12:23:58;16.30;99.90
935;DHT22;454;53.254;10.400;2023-04-29T12:26:27;16.30;99.90
935;DHT22;454;53.254;10.400;2023-04-29T12:28:55;16.00;99.90
935;DHT22;454;53.254;10.400;2023-04-29T12:31:22;15.90;99.90
935;DHT22;454;53.254;10.400;2023-04-29T12:33:53;15.90;99.90
935;DHT22;454;53.254;10.400;2023-04-29T12:36:20;15.90;99.90
935;DHT22;454;53.254;10.400;2023-04-29T12:38:47;15.90;99.90
935;DHT22;454;53.254;10.400;2023-04-29T12:41:15;15.90;99.90
935;DHT22;454;53.254;10.400;2023-04-29T12:43:43;15.90;99.90
935;DHT22;454;53.254;10.400;2023-04-29T12:46:10;16.00;99.90
935;DHT22;454;53.254;10.400;2023-04-29T12:48:39;16.20;99.90
935;DHT22;454;53.254;10.400;2023-04-29T12:51:08;16.30;99.90
935;DHT22;454;53.254;10.400;2023-04-29T12:53:36;16.30;99.90
935;DHT22;454;53.254;10.400;2023-04-29T12:56:03;16.40;99.90
935;DHT22;454;53.254;10.400;2023-04-29T12:58:32;16.40;99.90
935;DHT22;454;53.254;10.400;2023-04-29T13:00:59;16.40;99.90
935;DHT22;454;53.254;10.400;2023-04-29T13:03:26;16.20;99.90
935;DHT22;454;53.254;10.400;2023-04-29T13:05:52;16.20;99.90
935;DHT22;454;53.254;10.400;2023-04-29T13:08:19;16.20;99.90
935;DHT22;454;53.254;10.400;2023-04-29T13:10:47;16.20;99.90
935;DHT22;454;53.254;10.400;2023-04-29T13:13:14;16.30;99.90
935;DHT22;454;53.254;10.400;2023-04-29T13:15:42;16.30;99.90
935;DHT22;454;53.254;10.400;2023-04-29T13:18:09;16.30;99.90
935;DHT22;454;53.254;10.400;2023-04-29T13:20:35;16.30;99.90
935;DHT22;454;53.254;10.400;2023-04-29T13:23:02;16.20;99.90
935;DHT22;454;53.254;10.400;2023-04-29T13:25:29;16.00;99.90
935;DHT22;454;53.254;10.400;2023-04-29T13:27:56;15.90;99.90
935;DHT22;454;53.254;10.400;2023-04-29T13:30:23;15.90;99.90
935;DHT22;454;53.254;10.400;2023-04-29T13:32:51;15.90;99.90
935;DHT22;454;53.254;10.400;2023-04-29T13:35:17;15.70;99.90
935;DHT22;454;53.254;10.400;2023-04-29T13:37:44;15.70;99.90
935;DHT22;454;53.254;10.400;2023-04-29T13:40:12;15.80;99.90
935;DHT22;454;53.254;10.400;2023-04-29T13:42:39;15.90;99.90
935;DHT22;454;53.254;10.400;2023-04-29T13:45:06;16.10;99.90
935;DHT22;454;53.254;10.400;2023-04-29T13:47:34;16.30;99.90
935;DHT22;454;53.254;10.400;2023-04-29T13:50:03;16.40;99.90
935;DHT22;454;53.254;10.400;2023-04-29T13:52:30;16.50;99.90
935;DHT22;454;53.254;10.400;2023-04-29T13:54:56;16.40;99.90
935;DHT22;454;53.254;10.400;2023-04-29T13:57:23;16.50;99.90
935;DHT22;454;53.254;10.400;2023-04-29T13:59:51;16.60;99.90
935;DHT22;454;53.254;10.400;2023-04-29T14:02:19;16.50;99.90
935;DHT22;454;53.254;10.400;2023-04-29T14:04:46;16.40;99.90
935;DHT22;454;53.254;10.400;2023-04-29T14:07:14;16.30;99.90
935;DHT22;454;53.254;10.400;2023-04-29T14:09:41;16.30;99.90
935;DHT22;454;53.254;10.400;2023-04-29T14:12:08;16.20;99.90
935;DHT22;454;53.254;10.400;2023-04-29T14:14:35;16.10;99.90
935;DHT22;454;53.254;10.400;2023-04-29T14:17:01;16.20;99.90
935;DHT22;454;53.254;10.400;2023-04-29T14:19:28;16.20;99.90
935;DHT22;454;53.254;10.400;2023-04-29T14:21:55;16.00;99.90
935;DHT22;454;53.254;10.400;2023-04-29T14:24:23;15.90;99.90
935;DHT22;454;53.254;10.400;2023-04-29T14:26:50;15.90;99.90
935;DHT22;454;53.254;10.400;2023-04-29T14:29:17;15.90;99.90
935;DHT22;454;53.254;10.400;2023-04-29T14:31:44;15.90;99.90
935;DHT22;454;53.254;10.400;2023-04-29T14:34:11;15.80;99.90
935;DHT22;454;53.254;10.400;2023-04-29T14:36:37;15.70;99.90
935;DHT22;454;53.254;10.400;2023-04-29T14:39:04;15.70;99.90
935;DHT22;454;53.254;10.400;2023-04-29T14:41:32;15.70;99.90
935;DHT22;454;53.254;10.400;2023-04-29T14:43:59;15.70;99.90
935;DHT22;454;53.254;10.400;2023-04-29T14:46:26;15.70;99.90
935;DHT22;454;53.254;10.400;2023-04-29T14:48:53;15.70;99.90
935;DHT22;454;53.254;10.400;2023-04-29T14:51:20;15.70;99.90
935;DHT22;454;53.254;10.400;2023-04-29T14:53:47;15.60;99.90
935;DHT22;454;53.254;10.400;2023-04-29T14:56:15;15.60;99.90
935;DHT22;454;53.254;10.400;2023-04-29T14:58:43;15.60;99.90
935;DHT22;454;53.254;10.400;2023-04-29T15:01:10;15.50;99.90
935;DHT22;454;53.254;10.400;2023-04-29T15:03:37;15.50;99.90
935;DHT22;454;53.254;10.400;2023-04-29T15:06:04;15.50;99.90
935;DHT22;454;53.254;10.400;2023-04-29T15:08:31;15.50;99.90
935;DHT22;454;53.254;10.400;2023-04-29T15:10:58;15.50;99.90
935;DHT22;454;53.254;10.400;2023-04-29T15:13:25;15.50;99.90
935;DHT22;454;53.254;10.400;2023-04-29T15:15:53;15.60;99.90
935;DHT22;454;53.254;10.400;2023-04-29T15:18:20;15.50;99.90
935;DHT22;454;53.254;10.400;2023-04-29T15:20:47;15.50;99.90
935;DHT22;454;53.254;10.400;2023-04-29T15:23:15;15.60;99.90
935;DHT22;454;53.254;10.400;2023-04-29T15:25:42;15.60;99.90
935;DHT22;454;53.254;10.400;2023-04-29T15:28:08;15.60;99.90
935;DHT22;454;53.254;10.400;2023-04-29T15:30:35;15.70;99.90
935;DHT22;454;53.254;10.400;2023-04-29T15:33:03;15.80;99.90
935;DHT22;454;53.254;10.400;2023-04-29T15:35:30;15.70;99.90
935;DHT22;454;53.254;10.400;2023-04-29T15:37:57;15.70;99.90
935;DHT22;454;53.254;10.400;2023-04-29T15:40:24;15.80;99.90
935;DHT22;454;53.254;10.400;2023-04-29T15:42:51;15.70;99.90
935;DHT22;454;53.254;10.400;2023-04-29T15:45:18;15.60;99.90
935;DHT22;454;53.254;10.400;2023-04-29T15:47:44;15.60;99.90
935;DHT22;454;53.254;10.400;2023-04-29T15:50:13;15.70;99.90
935;DHT22;454;53.254;10.400;2023-04-29T15:52:40;15.60;99.90
935;DHT22;454;53.254;10.400;2023-04-29T15:55:07;15.50;99.90
935;DHT22;454;53.254;10.400;2023-04-29T15:57:34;15.50;99.90
935;DHT22;454;53.254;10.400;2023-04-29T16:00:06;15.50;99.90
935;DHT22;454;53.254;10.400;2023-04-29T16:02:34;15.50;99.90
935;DHT22;454;53.254;10.400;2023-04-29T16:05:00;15.50;99.90
935;DHT22;454;53.254;10.400;2023-04-29T16:07:29;15.40;99.90
935;DHT22;454;53.254;10.400;2023-04-29T16:09:56;15.30;99.90
935;DHT22;454;53.254;10.400;2023-04-29T16:12:22;15.30;99.90
935;DHT22;454;53.254;10.400;2023-04-29T16:14:49;15.30;99.90
935;DHT22;454;53.254;10.400;2023-04-29T16:17:16;15.20;99.90
935;DHT22;454;53.254;10.400;2023-04-29T16:19:43;15.20;99.90
935;DHT22;454;53.254;10.400;2023-04-29T16:22:10;15.20;99.90
935;DHT22;454;53.254;10.400;2023-04-29T16:24:38;15.10;99.90
935;DHT22;454;53.254;10.400;2023-04-29T16:27:04;15.00;99.90
935;DHT22;454;53.254;10.400;2023-04-29T16:29:31;15.00;99.90